createdAt,value
2023-02-23T00:02:08.438Z,59.95
2023-02-23T00:04:36.612Z,58.75
2023-02-23T00:07:06.253Z,57.40
2023-02-23T00:09:37.095Z,56.63
2023-02-23T00:12:09.175Z,57.58
2023-02-23T00:14:40.393Z,57.38
2023-02-23T00:17:15.226Z,59.20
2023-02-23T00:19:43.996Z,59.30
2023-02-23T00:22:12.862Z,57.17
2023-02-23T00:24:42.874Z,58.97
2023-02-23T00:27:13.362Z,56.78
2023-02-23T00:29:42.553Z,59.03
2023-02-23T00:32:10.587Z,59.42
2023-02-23T00:34:38.509Z,57.65
2023-02-23T00:37:08.639Z,58.85
2023-02-23T00:39:36.388Z,56.58
2023-02-23T00:42:06.698Z,57.53
2023-02-23T00:44:35.071Z,57.47
2023-02-23T00:47:04.142Z,57.50
2023-02-23T00:49:32.039Z,57.60
2023-02-23T00:51:59.990Z,59.20
2023-02-23T00:54:27.793Z,56.17
2023-02-23T00:56:55.856Z,57.75
2023-02-23T00:59:23.993Z,57.60
2023-02-23T01:01:52.594Z,57.05
2023-02-23T01:04:23.282Z,57.58
2023-02-23T01:06:51.311Z,57.13
2023-02-23T01:09:28.161Z,56.92
2023-02-23T01:11:57.274Z,56.55
2023-02-23T01:14:25.489Z,57.88
2023-02-23T01:16:53.392Z,57.15
2023-02-23T01:19:21.308Z,58.05
2023-02-23T01:21:50.045Z,57.25
2023-02-23T01:24:18.788Z,59.05
2023-02-23T01:26:46.667Z,57.33
2023-02-23T01:29:15.952Z,57.53
2023-02-23T01:31:45.553Z,56.13
2023-02-23T01:34:16.824Z,58.95
2023-02-23T01:36:45.890Z,58.63
2023-02-23T01:39:14.985Z,57.78
2023-02-23T01:41:43.053Z,55.40
2023-02-23T01:44:13.952Z,56.20
2023-02-23T01:46:43.793Z,56.70
2023-02-23T01:49:15.915Z,56.95
2023-02-23T01:51:45.634Z,56.55
2023-02-23T01:54:16.140Z,55.33
2023-02-23T01:56:46.146Z,56.92
2023-02-23T01:59:15.422Z,55.92
2023-02-23T02:01:43.998Z,54.33
2023-02-23T02:04:16.900Z,56.53
2023-02-23T02:06:46.549Z,56.20
2023-02-23T02:09:19.049Z,53.95
2023-02-23T02:11:54.343Z,54.17
2023-02-23T02:14:26.095Z,55.17
2023-02-23T02:17:05.180Z,53.50
2023-02-23T02:19:51.318Z,53.22
2023-02-23T02:22:19.176Z,52.75
2023-02-23T02:25:12.105Z,55.20
2023-02-23T02:27:46.108Z,56.63
2023-02-23T02:30:14.069Z,52.63
2023-02-23T02:33:05.222Z,55.22
2023-02-23T02:35:38.207Z,53.08
2023-02-23T02:38:16.565Z,53.03
2023-02-23T02:40:55.155Z,51.40
2023-02-23T02:43:47.062Z,54.08
2023-02-23T02:46:21.258Z,51.67
2023-02-23T02:49:02.625Z,52.47
2023-02-23T02:51:31.044Z,54.05
2023-02-23T02:54:31.658Z,52.42
2023-02-23T02:57:00.661Z,52.22
2023-02-23T02:59:48.074Z,52.40
2023-02-23T03:02:40.289Z,54.72
2023-02-23T03:05:34.472Z,55.45
2023-02-23T03:08:41.767Z,54.53
2023-02-23T03:11:33.240Z,53.60
2023-02-23T03:14:32.838Z,54.17
2023-02-23T03:17:38.423Z,52.83
2023-02-23T03:20:34.249Z,52.17
2023-02-23T03:23:41.342Z,54.85
2023-02-23T03:26:27.872Z,52.30
2023-02-23T03:29:27.317Z,53.67
2023-02-23T03:32:24.474Z,53.35
2023-02-23T03:35:13.691Z,54.53
2023-02-23T03:38:04.743Z,53.90
2023-02-23T03:41:07.166Z,53.83
2023-02-23T03:44:01.279Z,56.78
2023-02-23T03:46:50.212Z,57.20
2023-02-23T03:49:38.226Z,55.40
2023-02-23T03:52:35.606Z,55.53
2023-02-23T03:55:32.164Z,56.78
2023-02-23T03:58:21.232Z,54.92
2023-02-23T04:01:08.904Z,57.72
2023-02-23T04:03:57.945Z,53.28
2023-02-23T04:06:46.237Z,56.08
2023-02-23T04:09:33.337Z,56.63
2023-02-23T04:12:24.655Z,57.10
2023-02-23T04:14:58.620Z,53.75
2023-02-23T04:17:28.252Z,56.90
2023-02-23T04:19:56.421Z,54.05
2023-02-23T04:22:24.902Z,56.47
2023-02-23T04:24:53.089Z,54.53
2023-02-23T04:27:21.151Z,57.78
2023-02-23T04:29:49.113Z,55.13
2023-02-23T04:32:18.770Z,56.17
2023-02-23T04:34:46.689Z,56.22
2023-02-23T04:37:14.699Z,54.00
2023-02-23T04:39:49.703Z,55.40
2023-02-23T04:42:18.524Z,55.33
2023-02-23T04:44:46.798Z,52.00
2023-02-23T04:47:18.032Z,55.33
2023-02-23T04:49:49.083Z,54.60
2023-02-23T04:52:22.634Z,57.67
2023-02-23T04:54:51.937Z,57.78
2023-02-23T04:57:19.903Z,58.20
2023-02-23T04:59:47.665Z,57.67
2023-02-23T05:02:15.567Z,56.45
2023-02-23T05:04:43.376Z,57.30
2023-02-23T05:07:11.353Z,59.15
2023-02-23T05:09:41.038Z,56.03
2023-02-23T05:12:09.282Z,58.58
2023-02-23T05:14:37.095Z,59.58
2023-02-23T05:17:05.923Z,60.22
2023-02-23T05:19:35.465Z,61.13
2023-02-23T05:22:03.299Z,60.30
2023-02-23T05:24:31.249Z,56.72
2023-02-23T05:26:59.211Z,59.38
2023-02-23T05:29:27.353Z,59.42
2023-02-23T05:31:55.427Z,59.40
2023-02-23T05:34:24.219Z,58.42
2023-02-23T05:36:52.357Z,55.05
2023-02-23T05:39:20.221Z,58.60
2023-02-23T05:41:48.123Z,57.70
2023-02-23T05:44:16.051Z,57.60
2023-02-23T05:46:47.658Z,62.42
2023-02-23T05:49:15.518Z,60.10
2023-02-23T05:51:43.551Z,59.97
2023-02-23T05:54:11.784Z,58.83
2023-02-23T05:56:40.311Z,60.20
2023-02-23T05:59:08.312Z,60.38
2023-02-23T06:01:36.617Z,60.28
2023-02-23T06:04:06.202Z,59.60
2023-02-23T06:06:34.295Z,57.78
2023-02-23T06:09:03.410Z,56.75
2023-02-23T06:11:31.467Z,56.28
2023-02-23T06:14:02.477Z,56.30
2023-02-23T06:16:31.001Z,58.38
2023-02-23T06:18:59.725Z,56.17
2023-02-23T06:21:27.647Z,60.92
2023-02-23T06:23:55.509Z,59.58
2023-02-23T06:26:23.459Z,59.42
2023-02-23T06:28:51.743Z,56.72
2023-02-23T06:31:20.241Z,58.30
2023-02-23T06:33:48.809Z,58.40
2023-02-23T06:36:18.987Z,60.30
2023-02-23T06:38:47.172Z,58.45
2023-02-23T06:41:15.086Z,58.42
2023-02-23T06:43:43.026Z,59.83
2023-02-23T06:46:11.052Z,57.88
2023-02-23T06:48:39.732Z,59.15
2023-02-23T06:51:08.433Z,57.65
2023-02-23T06:53:36.863Z,58.08
2023-02-23T06:56:04.775Z,57.35
2023-02-23T06:58:32.900Z,61.75
2023-02-23T07:01:00.696Z,62.42
2023-02-23T07:03:28.675Z,62.13
2023-02-23T07:05:56.517Z,61.03
2023-02-23T07:08:25.017Z,63.90
2023-02-23T07:10:52.934Z,62.53
2023-02-23T07:13:22.061Z,62.03
2023-02-23T07:15:50.043Z,60.65
2023-02-23T07:18:18.128Z,63.83
2023-02-23T07:20:46.785Z,69.35
2023-02-23T07:23:14.618Z,70.55
2023-02-23T07:25:42.514Z,62.42
2023-02-23T07:28:10.809Z,63.58
2023-02-23T07:30:38.986Z,64.57
2023-02-23T07:33:06.836Z,69.07
2023-02-23T07:35:34.802Z,65.45
2023-02-23T07:38:02.895Z,63.00
2023-02-23T07:40:30.882Z,63.85
2023-02-23T07:42:58.899Z,62.92
2023-02-23T07:45:26.681Z,64.35
2023-02-23T07:47:54.573Z,64.35
2023-02-23T07:50:22.434Z,64.97
2023-02-23T07:52:51.934Z,62.33
2023-02-23T07:55:19.891Z,69.07
2023-02-23T07:57:47.872Z,82.47
2023-02-23T08:00:16.120Z,68.50
2023-02-23T08:02:44.224Z,66.57
2023-02-23T08:05:12.151Z,68.28
2023-02-23T08:07:40.061Z,66.13
2023-02-23T08:10:07.975Z,69.60
2023-02-23T08:12:36.974Z,83.55
2023-02-23T08:15:08.761Z,70.85
2023-02-23T08:17:38.950Z,69.10
2023-02-23T08:20:07.410Z,67.78
2023-02-23T08:22:48.349Z,67.32
2023-02-23T08:25:17.237Z,67.30
2023-02-23T08:27:45.432Z,71.28
2023-02-23T08:30:14.270Z,67.32
2023-02-23T08:32:42.432Z,70.95
2023-02-23T08:35:10.869Z,68.10
2023-02-23T08:37:39.483Z,66.85
2023-02-23T08:40:08.045Z,72.72
2023-02-23T08:42:35.997Z,68.88
2023-02-23T08:45:04.359Z,70.90
2023-02-23T08:47:34.369Z,68.70
2023-02-23T08:50:02.540Z,68.30
2023-02-23T08:52:30.715Z,67.03
2023-02-23T08:54:59.005Z,67.93
2023-02-23T08:57:27.108Z,64.38
2023-02-23T08:59:55.162Z,66.63
2023-02-23T09:02:23.946Z,79.55
2023-02-23T09:04:54.293Z,75.47
2023-02-23T09:07:23.440Z,66.53
2023-02-23T09:09:58.248Z,80.55
2023-02-23T09:12:26.234Z,68.93
2023-02-23T09:14:54.228Z,67.75
2023-02-23T09:17:23.158Z,75.32
2023-02-23T09:19:51.748Z,70.75
2023-02-23T09:22:19.842Z,71.18
2023-02-23T09:24:47.715Z,69.00
2023-02-23T09:27:15.685Z,79.00
2023-02-23T09:29:44.529Z,74.47
2023-02-23T09:32:13.094Z,65.25
2023-02-23T09:34:41.097Z,66.15
2023-02-23T09:37:09.005Z,65.13
2023-02-23T09:39:39.082Z,67.38
2023-02-23T09:42:11.989Z,63.72
2023-02-23T09:44:46.361Z,63.45
2023-02-23T09:47:19.574Z,60.95
2023-02-23T09:49:51.839Z,62.63
2023-02-23T09:52:21.981Z,65.65
2023-02-23T09:54:50.031Z,62.38
2023-02-23T09:57:26.337Z,69.35
2023-02-23T09:59:54.199Z,72.90
2023-02-23T10:02:39.778Z,66.70
2023-02-23T10:05:11.916Z,62.50
2023-02-23T10:07:48.872Z,63.10
2023-02-23T10:10:22.830Z,62.50
2023-02-23T10:12:50.687Z,60.97
2023-02-23T10:15:25.488Z,59.33
2023-02-23T10:18:04.186Z,60.72
2023-02-23T10:20:35.034Z,60.55
2023-02-23T10:23:09.099Z,71.38
2023-02-23T10:25:39.229Z,65.70
2023-02-23T10:28:10.995Z,64.95
2023-02-23T10:30:41.607Z,60.97
2023-02-23T10:33:17.428Z,122.70
2023-02-23T10:35:46.223Z,63.60
2023-02-23T10:38:18.598Z,60.80
2023-02-23T10:40:49.523Z,63.23
2023-02-23T10:43:17.448Z,61.38
2023-02-23T10:45:53.609Z,93.85
2023-02-23T10:48:24.550Z,150.13
2023-02-23T10:50:54.681Z,62.60
2023-02-23T10:53:27.766Z,56.50
2023-02-23T10:56:16.995Z,57.28
2023-02-23T10:58:50.853Z,57.45
2023-02-23T11:01:35.394Z,62.08
2023-02-23T11:04:24.084Z,61.08
2023-02-23T11:06:53.160Z,68.18
2023-02-23T11:09:33.134Z,59.70
2023-02-23T11:12:25.529Z,58.22
2023-02-23T11:14:54.985Z,65.15
2023-02-23T11:17:32.057Z,60.90
2023-02-23T11:20:26.731Z,58.63
2023-02-23T11:22:59.035Z,59.95
2023-02-23T11:25:30.546Z,58.08
2023-02-23T11:27:58.916Z,87.20
2023-02-23T11:30:32.124Z,64.28
2023-02-23T11:35:31.720Z,53.13
2023-02-23T11:37:59.808Z,58.97
2023-02-23T11:40:33.646Z,55.42
2023-02-23T11:43:16.759Z,56.40
2023-02-23T11:45:44.854Z,64.18
2023-02-23T11:48:32.278Z,57.20
2023-02-23T11:51:04.237Z,59.47
2023-02-23T11:53:52.520Z,54.88
2023-02-23T11:56:23.066Z,55.63
2023-02-23T11:58:58.748Z,56.17
2023-02-23T12:01:42.215Z,56.03
2023-02-23T12:04:11.726Z,53.60
2023-02-23T12:06:42.646Z,51.80
2023-02-23T12:09:25.102Z,55.78
2023-02-23T12:12:01.814Z,81.97
2023-02-23T12:14:30.053Z,99.22
2023-02-23T12:17:05.348Z,98.85
2023-02-23T12:19:35.603Z,57.03
2023-02-23T12:22:06.378Z,61.03
2023-02-23T12:24:45.736Z,54.05
2023-02-23T12:27:16.752Z,55.88
2023-02-23T12:30:14.747Z,73.20
2023-02-23T12:32:48.493Z,56.35
2023-02-23T12:35:31.974Z,54.93
2023-02-23T12:40:29.278Z,51.03
2023-02-23T12:43:00.188Z,53.83
2023-02-23T12:45:47.009Z,51.00
2023-02-23T12:48:35.402Z,51.78
2023-02-23T12:51:06.614Z,50.72
2023-02-23T12:53:42.270Z,51.70
2023-02-23T12:56:18.268Z,52.65
2023-02-23T12:58:54.051Z,53.03
2023-02-23T13:01:30.413Z,50.20
2023-02-23T13:04:09.799Z,50.40
2023-02-23T13:06:59.551Z,50.95
2023-02-23T13:09:33.416Z,52.08
2023-02-23T13:12:01.421Z,50.47
2023-02-23T13:14:53.472Z,52.92
2023-02-23T13:17:40.796Z,51.88
2023-02-23T13:20:10.463Z,51.58
2023-02-23T13:22:38.402Z,84.40
2023-02-23T13:25:18.044Z,53.88
2023-02-23T13:27:50.527Z,51.53
2023-02-23T13:30:20.785Z,51.58
2023-02-23T13:32:50.401Z,50.13
2023-02-23T13:35:20.544Z,47.10
2023-02-23T13:37:48.650Z,48.13
2023-02-23T13:40:35.248Z,49.47
2023-02-23T13:43:07.175Z,51.28
2023-02-23T13:45:38.000Z,52.20
2023-02-23T13:48:30.863Z,51.58
2023-02-23T13:51:04.479Z,48.22
2023-02-23T13:53:41.751Z,47.05
2023-02-23T13:56:29.875Z,49.80
2023-02-23T13:59:00.662Z,43.65
2023-02-23T14:01:33.695Z,44.08
2023-02-23T14:04:03.844Z,42.95
2023-02-23T14:06:34.176Z,44.70
2023-02-23T14:09:10.137Z,43.47
2023-02-23T14:11:38.255Z,45.47
2023-02-23T14:14:06.396Z,45.90
2023-02-23T14:16:34.390Z,45.92
2023-02-23T14:19:11.648Z,45.40
2023-02-23T14:21:44.585Z,44.28
2023-02-23T14:24:15.603Z,43.55
2023-02-23T14:26:44.743Z,42.83
2023-02-23T14:29:28.891Z,45.08
2023-02-23T14:32:01.632Z,43.33
2023-02-23T14:34:48.503Z,45.30
2023-02-23T14:37:39.701Z,46.13
2023-02-23T14:40:09.192Z,41.83
2023-02-23T14:42:38.893Z,42.45
2023-02-23T14:45:17.721Z,41.85
2023-02-23T14:47:47.398Z,39.60
2023-02-23T14:50:20.086Z,41.63
2023-02-23T14:52:47.937Z,41.85
2023-02-23T14:55:29.073Z,41.25
2023-02-23T14:57:58.230Z,40.60
2023-02-23T15:00:34.296Z,56.75
2023-02-23T15:03:02.195Z,55.45
2023-02-23T15:05:35.278Z,41.97
2023-02-23T15:08:07.490Z,39.88
2023-02-23T15:10:40.024Z,41.17
2023-02-23T15:13:28.812Z,41.47
2023-02-23T15:16:02.994Z,42.05
2023-02-23T15:18:33.341Z,43.30
2023-02-23T15:21:02.372Z,42.72
2023-02-23T15:23:37.797Z,41.05
2023-02-23T15:26:24.025Z,40.90
2023-02-23T15:28:52.720Z,42.47
2023-02-23T15:31:21.123Z,43.08
2023-02-23T15:33:50.898Z,40.40
2023-02-23T15:36:34.846Z,41.13
2023-02-23T15:39:05.222Z,41.85
2023-02-23T15:41:36.084Z,41.22
2023-02-23T15:44:04.114Z,41.22
2023-02-23T15:46:32.768Z,40.05
2023-02-23T15:49:03.645Z,41.40
2023-02-23T15:51:49.171Z,42.05
2023-02-23T15:54:27.601Z,42.72
2023-02-23T15:57:03.037Z,42.80
2023-02-23T15:59:34.778Z,40.63
2023-02-23T16:02:03.146Z,42.70
2023-02-23T16:04:33.158Z,40.30
2023-02-23T16:07:20.688Z,39.72
2023-02-23T16:09:49.911Z,40.65
2023-02-23T16:12:19.905Z,42.85
2023-02-23T16:14:50.398Z,40.38
2023-02-23T16:17:21.242Z,41.15
2023-02-23T16:19:49.164Z,41.55
2023-02-23T16:22:21.303Z,41.15
2023-02-23T16:24:58.270Z,43.10
2023-02-23T16:27:26.841Z,43.13
2023-02-23T16:30:06.095Z,41.90
2023-02-23T16:32:35.816Z,40.20
2023-02-23T16:35:10.135Z,45.42
2023-02-23T16:37:51.134Z,41.60
2023-02-23T16:40:19.059Z,41.53
2023-02-23T16:42:46.940Z,40.97
2023-02-23T16:45:18.459Z,40.80
2023-02-23T16:47:50.225Z,42.03
2023-02-23T16:50:20.906Z,42.47
2023-02-23T16:52:53.580Z,42.72
2023-02-23T16:55:35.551Z,42.90
2023-02-23T16:58:12.131Z,42.70
2023-02-23T17:00:40.067Z,43.55
2023-02-23T17:03:11.797Z,45.70
2023-02-23T17:05:40.167Z,45.55
2023-02-23T17:08:10.333Z,43.40
2023-02-23T17:10:38.662Z,42.95
2023-02-23T17:13:07.998Z,50.30
2023-02-23T17:15:37.284Z,43.83
2023-02-23T17:18:05.910Z,43.83
2023-02-23T17:20:34.530Z,44.28
2023-02-23T17:23:03.384Z,46.30
2023-02-23T17:25:31.262Z,43.05
2023-02-23T17:27:59.975Z,47.97
2023-02-23T17:30:28.876Z,46.45
2023-02-23T17:32:57.851Z,43.03
2023-02-23T17:35:26.053Z,43.67
2023-02-23T17:37:54.294Z,43.38
2023-02-23T17:40:28.500Z,41.85
2023-02-23T17:42:57.169Z,44.63
2023-02-23T17:45:25.377Z,43.50
2023-02-23T17:47:53.608Z,45.80
2023-02-23T17:50:22.237Z,45.35
2023-02-23T17:52:50.527Z,47.42
2023-02-23T17:55:19.122Z,50.83
2023-02-23T17:57:47.070Z,46.55
2023-02-23T18:00:15.968Z,45.75
2023-02-23T18:02:44.908Z,45.80
2023-02-23T18:05:14.179Z,47.63
2023-02-23T18:07:42.650Z,47.30
2023-02-23T18:10:11.424Z,45.65
2023-02-23T18:12:39.440Z,46.55
2023-02-23T18:15:08.069Z,45.78
2023-02-23T18:17:37.322Z,46.58
2023-02-23T18:20:06.494Z,45.92
2023-02-23T18:22:35.088Z,46.88
2023-02-23T18:25:02.936Z,45.17
2023-02-23T18:27:32.018Z,45.25
2023-02-23T18:30:00.048Z,46.78
2023-02-23T18:32:28.149Z,45.42
2023-02-23T18:34:56.563Z,46.08
2023-02-23T18:37:25.635Z,46.03
2023-02-23T18:39:54.312Z,47.35
2023-02-23T18:42:22.420Z,47.63
2023-02-23T18:44:50.696Z,47.55
2023-02-23T18:47:18.576Z,63.30
2023-02-23T18:49:46.541Z,50.85
2023-02-23T18:52:31.076Z,47.10
2023-02-23T18:55:05.367Z,48.33
2023-02-23T18:57:33.633Z,48.15
2023-02-23T19:00:01.532Z,51.05
2023-02-23T19:02:29.605Z,55.42
2023-02-23T19:05:03.092Z,99.47
2023-02-23T19:07:34.315Z,54.60
2023-02-23T19:10:02.406Z,54.22
2023-02-23T19:12:30.749Z,48.17
2023-02-23T19:15:03.614Z,53.33
2023-02-23T19:17:31.463Z,48.30
2023-02-23T19:20:01.246Z,49.80
2023-02-23T19:22:30.238Z,47.45
2023-02-23T19:24:58.141Z,50.25
2023-02-23T19:27:26.083Z,51.65
2023-02-23T19:29:54.020Z,50.65
2023-02-23T19:32:23.374Z,47.58
2023-02-23T19:34:51.460Z,48.20
2023-02-23T19:37:19.601Z,48.67
2023-02-23T19:39:47.710Z,50.88
2023-02-23T19:42:18.560Z,51.45
2023-02-23T19:44:50.047Z,55.92
2023-02-23T19:47:17.869Z,53.25
2023-02-23T19:49:45.979Z,50.85
2023-02-23T19:52:13.883Z,52.38
2023-02-23T19:54:41.893Z,51.17
2023-02-23T19:57:10.169Z,55.90
2023-02-23T19:59:38.119Z,50.95
2023-02-23T20:02:06.036Z,47.55
2023-02-23T20:04:34.215Z,49.80
2023-02-23T20:07:02.055Z,50.10
2023-02-23T20:09:29.927Z,61.95
2023-02-23T20:11:57.962Z,60.80
2023-02-23T20:14:27.173Z,58.08
2023-02-23T20:16:55.440Z,55.55
2023-02-23T20:19:23.336Z,69.80
2023-02-23T20:21:51.422Z,60.35
2023-02-23T20:24:22.974Z,55.40
2023-02-23T20:26:52.684Z,74.25
2023-02-23T20:29:22.061Z,81.45
2023-02-23T20:31:52.077Z,68.15
2023-02-23T20:34:24.021Z,69.32
2023-02-23T20:36:55.123Z,57.03
2023-02-23T20:39:27.642Z,52.80
2023-02-23T20:41:56.433Z,50.30
2023-02-23T20:44:25.830Z,53.22
2023-02-23T20:46:54.342Z,68.28
2023-02-23T20:49:28.387Z,65.03
2023-02-23T20:51:56.728Z,55.17
2023-02-23T20:54:25.144Z,53.63
2023-02-23T20:56:59.461Z,54.25
2023-02-23T20:59:31.630Z,55.30
2023-02-23T21:02:04.406Z,64.55
2023-02-23T21:04:35.675Z,55.67
2023-02-23T21:07:07.824Z,55.75
2023-02-23T21:09:35.819Z,55.38
2023-02-23T21:12:03.739Z,55.28
2023-02-23T21:14:32.726Z,57.30
2023-02-23T21:17:02.157Z,55.03
2023-02-23T21:19:31.269Z,56.50
2023-02-23T21:22:01.758Z,55.75
2023-02-23T21:24:33.961Z,56.08
2023-02-23T21:27:05.393Z,53.63
2023-02-23T21:29:33.341Z,54.25
2023-02-23T21:32:01.343Z,54.30
2023-02-23T21:34:29.469Z,53.80
2023-02-23T21:36:59.456Z,54.58
2023-02-23T21:39:39.899Z,53.75
2023-02-23T21:42:08.067Z,56.10
2023-02-23T21:44:36.148Z,57.42
2023-02-23T21:47:07.139Z,56.40
2023-02-23T21:49:35.211Z,57.72
2023-02-23T21:52:03.573Z,58.65
2023-02-23T21:54:31.445Z,53.85
2023-02-23T21:56:59.498Z,57.35
2023-02-23T21:59:27.280Z,55.95
2023-02-23T22:01:55.446Z,55.83
2023-02-23T22:04:23.545Z,55.78
2023-02-23T22:06:58.349Z,54.63
2023-02-23T22:10:02.311Z,54.78
2023-02-23T22:12:41.529Z,112.05
2023-02-23T22:15:15.647Z,56.63
2023-02-23T22:17:44.479Z,53.40
2023-02-23T22:20:12.819Z,53.10
2023-02-23T22:22:41.457Z,55.08
2023-02-23T22:25:09.754Z,52.70
2023-02-23T22:27:37.593Z,52.53
2023-02-23T22:30:06.653Z,52.47
2023-02-23T22:32:34.768Z,51.55
2023-02-23T22:35:03.348Z,49.63
2023-02-23T22:37:32.245Z,49.38
2023-02-23T22:40:16.872Z,49.55
2023-02-23T22:42:48.428Z,48.80
2023-02-23T22:45:16.414Z,50.70
2023-02-23T22:47:44.321Z,48.95
2023-02-23T22:50:19.319Z,51.15
2023-02-23T22:52:47.428Z,46.83
2023-02-23T22:55:15.309Z,45.65
2023-02-23T22:57:43.128Z,44.38
2023-02-23T23:00:11.725Z,43.40
2023-02-23T23:02:39.639Z,43.38
2023-02-23T23:05:07.918Z,44.92
2023-02-23T23:07:36.188Z,42.80
2023-02-23T23:10:05.911Z,42.65
2023-02-23T23:12:34.444Z,44.40
2023-02-23T23:15:07.283Z,43.80
2023-02-23T23:17:35.225Z,43.58
2023-02-23T23:20:11.010Z,41.35
2023-02-23T23:22:38.926Z,42.03
2023-02-23T23:25:14.884Z,41.55
2023-02-23T23:27:44.989Z,41.38
2023-02-23T23:30:13.385Z,42.42
2023-02-23T23:32:41.354Z,40.47
2023-02-23T23:35:13.701Z,41.38
2023-02-23T23:37:41.573Z,40.92
2023-02-23T23:40:15.587Z,42.28
2023-02-23T23:42:46.096Z,44.20
2023-02-23T23:45:16.380Z,40.38
2023-02-23T23:47:47.639Z,41.65
2023-02-23T23:50:16.654Z,40.75
2023-02-23T23:52:45.473Z,40.47
2023-02-23T23:55:14.825Z,41.42
2023-02-23T23:57:43.123Z,40.70
